Flight Track Log - Related Links

Times and Time Zones

All times are in EDT time to prevent confusion due to time zone crossing. See the SWA864 flight status page for this flight to view local times or setup timezone preferences in your user account.

Time Position Orientation Groundspeed Altitude Reporting Facility
EDT Latitude Longitude Course Direction KTS MPH feet Rate Location/Type
Sat 07:43:18 PM 34.1383 -118.4081 225° Southwest 203 234 4,400  Level Los Angeles Center
Sat 07:44:19 PM 34.1814 -118.4658 312° West 249 287 6,700 2,488 Climbing Los Angeles Center
Sat 07:45:21 PM 34.2489 -118.5075 333° Northwest 267 307 9,500 2,976 Climbing Los Angeles Center
Sat 07:46:22 PM 34.3239 -118.5553 332° Northwest 296 341 12,800 2,244 Climbing Los Angeles Center
Sat 07:47:24 PM 34.4153 -118.6139 332° Northwest 380 437 14,100 2,341 Climbing Los Angeles Center
Sat 07:48:25 PM 34.5392 -118.6922 332° Northwest 420 483 17,600 2,927 Climbing Los Angeles Center
Sat 07:49:27 PM 34.6489 -118.7622 332° Northwest 449 517 20,100 2,516 Climbing Los Angeles Center
Sat 07:50:29 PM 34.7622 -118.8369 332° Northwest 461 531 22,800 2,488 Climbing Los Angeles Center
Sat 07:51:30 PM 34.8683 -118.9269 325° Northwest 474 545 25,200 1,951 Climbing Los Angeles Center
Sat 07:52:32 PM 34.9664 -119.0233 321° Northwest 471 542 26,800 1,694 Climbing Los Angeles Center
Sat 07:53:34 PM 35.0756 -119.1233 323° Northwest 487 560 28,700 2,089 Climbing Los Angeles Center
Sat 07:54:47 PM 35.2019 -119.2467 321° Northwest 488 562 31,500 2,206 Climbing Los Angeles Center
Sat 07:55:50 PM 35.3247 -119.3708 320° Northwest 484 557 33,700 1,935 Climbing Los Angeles Center
Sat 07:56:51 PM 35.4272 -119.4717 321° Northwest 480 552 35,500 1,707 Climbing Los Angeles Center
Sat 07:57:53 PM 35.5283 -119.5711 321° Northwest 475 547 37,200 1,500 Climbing Los Angeles Center
Sat 07:58:55 PM 35.6303 -119.6731 321° Northwest 474 545 38,600 1,355 Climbing Los Angeles Center
Sat 07:59:57 PM 35.7475 -119.7922 320° Northwest 462 532 40,000 683 Climbing Los Angeles Center
Sat 08:00:58 PM 35.8450 -119.8908 321° Northwest 457 526 40,000  Level Los Angeles Center
Sat 08:02:00 PM 35.9436 -119.9906 321° Northwest 459 528 40,000  Level Los Angeles Center
Sat 08:03:02 PM 36.0408 -120.0897 320° Northwest 456 525 40,000 -726 Level Los Angeles Center
Sat 08:04:04 PM 36.1392 -120.1889 321° Northwest 456 525 38,500 -2,204 Descending Los Angeles Center
Sat 08:05:29 PM 36.2756 -120.3283 321° Northwest 459 528 34,600 -2,589 Descending Oakland Center
Sat 08:06:30 PM 36.3739 -120.4272 321° Northwest 457 526 32,200 -1,721 Descending Oakland Center
Sat 08:07:31 PM 36.4936 -120.5478 321° Northwest 466 536 31,100 -1,230 Descending Oakland Center
Sat 08:08:32 PM 36.5928 -120.6522 320° Northwest 470 541 29,700 -1,574 Descending Oakland Center
Sat 08:09:33 PM 36.6817 -120.7453 320° Northwest 424 488 27,900 -1,785 Descending Oakland Center
Sat 08:10:33 PM 36.7772 -120.8031 334° Northwest 385 443 26,100 -1,983 Descending Oakland Center
Sat 08:11:34 PM 36.8769 -120.8308 347° North 374 430 23,900 -2,262 Descending Oakland Center
Sat 08:12:35 PM 36.9750 -120.8678 343° North 369 425 21,500 -2,902 Descending Oakland Center
Sat 08:13:36 PM 37.0747 -120.9022 345° North 374 430 18,000 -3,541 Descending Oakland Center
Sat 08:14:37 PM 37.1833 -120.9419 344° North 400 460 14,300 -2,951 Descending Oakland Center
Sat 08:15:38 PM 37.2875 -120.9761 345° North 394 453 12,000 -1,525 Descending Oakland Center
Sat 08:16:39 PM 37.3833 -121.0500 329° Northwest 353 406 11,200 -893 Descending Northern Cal TRACON
Sat 08:17:39 PM 37.4500 -121.1333 315° West 341 392 10,200 -950 Descending Northern Cal TRACON
Sat 08:18:39 PM 37.5000 -121.2167 307° West 307 353 9,300 -900 Descending Northern Cal TRACON
Sat 08:19:39 PM 37.5167 -121.3167 282° West 297 342 8,400 -650 Descending Northern Cal TRACON
Sat 08:20:39 PM 37.5500 -121.4167 293° West 295 339 8,000 -200 Descending Northern Cal TRACON
Sat 08:21:39 PM 37.5667 -121.5167 282° West 286 329 8,000  Level Northern Cal TRACON
Sat 08:22:39 PM 37.6000 -121.6000 297° West 257 296 8,000  Level Northern Cal TRACON
Sat 08:23:33 PM 37.6167 -121.6667 288° West 231 266 8,000 -789 Level Northern Cal TRACON
Sat 08:24:33 PM 37.6167 -121.7500 270° West 240 276 6,500 -1,286 Descending Northern Cal TRACON
Sat 08:25:39 PM 37.6167 -121.8500 270° West 250 288 5,300 -1,048 Descending Northern Cal TRACON
Sat 08:26:39 PM 37.6167 -121.9333 270° West 244 281 4,300 -1,000 Descending Northern Cal TRACON
Sat 08:27:33 PM 37.6167 -122.0000 270° West 239 275 3,400 -900 Descending Northern Cal TRACON
Sat 08:28:39 PM 37.6167 -122.1000 270° West 227 261 2,500 -952 Descending Northern Cal TRACON
Sat 08:29:39 PM 37.6500 -122.1500 310° West 190 219 1,400 -947 Descending Northern Cal TRACON
Sat 08:30:33 PM 37.6833 -122.1833 322° Northwest 139 160 700 -778 Descending Northern Cal TRACON
Sat 08:33:00 PM 37.7167 -122.2167 270° West  Level FlightAware Approximate

Login

Don't have an account? Register now (free) for customized features, flight alerts, and more!